createdAt,value
2019-02-22T00:00:42.227Z,107.50
2019-02-22T00:03:16.593Z,108.43
2019-02-22T00:05:51.563Z,115.70
2019-02-22T00:08:25.627Z,116.33
2019-02-22T00:10:59.577Z,110.50
2019-02-22T00:13:35.039Z,116.00
2019-02-22T00:16:08.853Z,122.00
2019-02-22T00:18:42.547Z,118.37
2019-02-22T00:21:17.346Z,113.47
2019-02-22T00:23:51.159Z,127.67
2019-02-22T00:26:25.391Z,125.20
2019-02-22T00:28:59.297Z,121.90
2019-02-22T00:31:33.418Z,118.33
2019-02-22T00:34:07.368Z,116.13
2019-02-22T00:36:41.664Z,111.83
2019-02-22T00:39:15.750Z,116.13
2019-02-22T00:41:49.472Z,112.97
2019-02-22T00:44:24.525Z,112.90
2019-02-22T00:46:58.340Z,117.43
2019-02-22T00:49:32.210Z,122.47
2019-02-22T00:52:06.216Z,122.17
2019-02-22T00:54:42.177Z,120.10
2019-02-22T00:57:16.551Z,120.30
2019-02-22T00:59:50.291Z,111.30
2019-02-22T01:02:24.563Z,112.00
2019-02-22T01:04:59.042Z,118.10
2019-02-22T01:07:33.050Z,117.80
2019-02-22T01:10:06.661Z,119.90
2019-02-22T01:12:39.365Z,123.10
2019-02-22T01:15:13.043Z,113.50
2019-02-22T01:17:47.093Z,111.03
2019-02-22T01:20:20.955Z,118.97
2019-02-22T01:22:55.421Z,117.87
2019-02-22T01:25:29.581Z,118.67
2019-02-22T01:28:03.574Z,119.83
2019-02-22T01:30:37.813Z,118.60
2019-02-22T01:33:11.386Z,107.70
2019-02-22T01:35:44.822Z,104.27
2019-02-22T01:38:20.667Z,109.57
2019-02-22T01:40:54.122Z,103.80
2019-02-22T01:43:27.898Z,105.40
2019-02-22T01:46:01.498Z,106.23
2019-02-22T01:48:35.725Z,120.10
2019-02-22T01:51:09.926Z,106.13
2019-02-22T01:53:44.375Z,114.03
2019-02-22T01:56:18.315Z,112.60
2019-02-22T01:58:53.605Z,118.87
2019-02-22T02:01:28.987Z,120.33
2019-02-22T02:04:04.211Z,122.17
2019-02-22T02:06:39.414Z,125.43
2019-02-22T02:09:14.790Z,126.83
2019-02-22T02:11:50.350Z,134.50
2019-02-22T02:14:24.510Z,127.00
2019-02-22T02:17:00.445Z,137.20
2019-02-22T02:19:36.123Z,133.67
2019-02-22T02:22:11.108Z,124.10
2019-02-22T02:24:45.791Z,125.40
2019-02-22T02:27:21.154Z,135.73
2019-02-22T02:29:56.192Z,126.23
2019-02-22T02:32:31.526Z,133.03
2019-02-22T02:35:07.198Z,123.60
2019-02-22T02:37:42.318Z,145.03
2019-02-22T02:40:16.827Z,131.43
2019-02-22T02:42:50.680Z,127.90
2019-02-22T02:45:26.097Z,129.90
2019-02-22T02:48:01.247Z,138.93
2019-02-22T02:50:36.059Z,135.83
2019-02-22T02:53:11.519Z,137.47
2019-02-22T02:55:47.609Z,134.47
2019-02-22T02:58:20.894Z,132.40
2019-02-22T03:00:55.697Z,128.60
2019-02-22T03:03:30.593Z,129.33
2019-02-22T03:06:10.639Z,131.07
2019-02-22T03:08:44.995Z,137.10
2019-02-22T03:11:21.083Z,131.90
2019-02-22T03:13:56.088Z,127.93
2019-02-22T03:16:30.406Z,132.80
2019-02-22T03:19:03.620Z,134.40
2019-02-22T03:21:39.143Z,126.13
2019-02-22T03:24:14.386Z,137.30
2019-02-22T03:26:48.622Z,135.77
2019-02-22T03:29:24.463Z,137.23
2019-02-22T03:31:59.613Z,129.13
2019-02-22T03:34:35.043Z,132.00
2019-02-22T03:37:10.389Z,139.97
2019-02-22T03:39:45.064Z,153.73
2019-02-22T03:42:19.579Z,154.80
2019-02-22T03:44:54.472Z,147.67
2019-02-22T03:47:29.875Z,155.50
2019-02-22T03:50:05.839Z,145.03
2019-02-22T03:52:48.356Z,142.43
2019-02-22T03:55:23.820Z,136.70
2019-02-22T03:57:58.570Z,139.33
2019-02-22T04:00:33.805Z,140.57
2019-02-22T04:03:10.332Z,144.70
2019-02-22T04:05:45.951Z,156.83
2019-02-22T04:08:21.196Z,150.53
2019-02-22T04:10:55.766Z,152.53
2019-02-22T04:13:30.819Z,147.47
2019-02-22T04:16:05.892Z,136.60
2019-02-22T04:18:40.784Z,151.13
2019-02-22T04:21:15.633Z,143.00
2019-02-22T04:23:51.015Z,136.33
2019-02-22T04:26:25.606Z,151.63
2019-02-22T04:29:02.089Z,154.63
2019-02-22T04:31:38.237Z,153.03
2019-02-22T04:34:14.038Z,152.30
2019-02-22T04:36:50.726Z,159.83
2019-02-22T04:39:25.834Z,155.93
2019-02-22T04:42:01.345Z,151.33
2019-02-22T04:44:35.792Z,161.70
2019-02-22T04:47:12.652Z,190.97
2019-02-22T04:49:50.132Z,173.67
2019-02-22T04:52:26.649Z,155.03
2019-02-22T04:55:03.745Z,154.97
2019-02-22T04:57:40.840Z,155.03
2019-02-22T05:00:17.449Z,151.00
2019-02-22T05:02:53.312Z,150.03
2019-02-22T05:05:29.919Z,156.47
2019-02-22T05:08:05.555Z,149.43
2019-02-22T05:10:40.123Z,159.73
2019-02-22T05:13:15.586Z,175.23
2019-02-22T05:15:52.163Z,147.77
2019-02-22T05:18:26.922Z,159.63
2019-02-22T05:21:01.402Z,158.30
2019-02-22T05:23:37.784Z,148.27
2019-02-22T05:26:14.565Z,172.43
2019-02-22T05:28:50.147Z,158.23
2019-02-22T05:31:25.854Z,166.27
2019-02-22T05:34:01.687Z,167.63
2019-02-22T05:36:36.852Z,166.73
2019-02-22T05:39:19.151Z,192.63
2019-02-22T05:41:49.935Z,192.47
2019-02-22T05:44:25.625Z,175.03
2019-02-22T05:47:00.797Z,168.57
2019-02-22T05:49:39.472Z,160.83
2019-02-22T05:52:14.657Z,192.57
2019-02-22T05:54:49.472Z,189.20
2019-02-22T05:57:24.693Z,182.80
2019-02-22T05:59:59.420Z,181.03
2019-02-22T06:02:35.577Z,184.17
2019-02-22T06:05:10.854Z,164.87
2019-02-22T06:07:45.831Z,171.97
2019-02-22T06:10:21.221Z,173.83
2019-02-22T06:12:56.123Z,157.20
2019-02-22T06:15:31.517Z,147.97
2019-02-22T06:18:07.974Z,163.10
2019-02-22T06:20:42.844Z,151.63
2019-02-22T06:23:18.878Z,143.93
2019-02-22T06:25:53.979Z,140.73
2019-02-22T06:28:29.053Z,148.00
2019-02-22T06:31:04.586Z,149.93
2019-02-22T06:33:40.136Z,141.53
2019-02-22T06:36:14.674Z,155.37
2019-02-22T06:38:49.813Z,136.73
2019-02-22T06:41:25.284Z,150.93
2019-02-22T06:44:01.358Z,139.93
2019-02-22T06:46:36.038Z,146.27
2019-02-22T06:49:10.209Z,144.37
2019-02-22T06:51:45.467Z,143.27
2019-02-22T06:54:22.318Z,149.77
2019-02-22T06:56:57.842Z,137.87
2019-02-22T06:59:32.027Z,149.73
2019-02-22T07:02:05.829Z,160.47
2019-02-22T07:04:40.593Z,152.33
2019-02-22T07:07:15.510Z,176.83
2019-02-22T07:09:49.031Z,158.70
2019-02-22T07:12:56.156Z,150.63
2019-02-22T07:15:18.128Z,155.40
2019-02-22T07:17:49.623Z,143.90
2019-02-22T07:20:20.913Z,165.63
2019-02-22T07:22:52.669Z,143.17
2019-02-22T07:25:24.631Z,153.83
2019-02-22T07:27:55.847Z,172.47
2019-02-22T07:30:27.628Z,145.13
2019-02-22T07:32:59.338Z,143.37
2019-02-22T07:35:32.761Z,112.13
2019-02-22T07:38:04.883Z,102.63
2019-02-22T07:40:37.272Z,109.83
2019-02-22T07:43:09.432Z,116.33
2019-02-22T07:45:41.628Z,99.70
2019-02-22T07:48:13.012Z,104.23
2019-02-22T07:50:56.314Z,107.60
2019-02-22T07:53:17.572Z,101.03
2019-02-22T07:55:48.638Z,100.13
2019-02-22T07:58:22.814Z,98.40
2019-02-22T08:00:54.744Z,90.20
2019-02-22T08:03:26.476Z,97.03
2019-02-22T08:05:58.107Z,93.33
2019-02-22T08:08:29.771Z,90.40
2019-02-22T08:11:01.740Z,93.53
2019-02-22T08:13:35.225Z,86.40
2019-02-22T08:16:07.473Z,75.30
2019-02-22T08:18:42.756Z,76.13
2019-02-22T08:21:15.011Z,76.73
2019-02-22T08:23:47.065Z,71.70
2019-02-22T08:26:19.859Z,70.93
2019-02-22T08:28:51.551Z,76.00
2019-02-22T08:31:23.189Z,72.63
2019-02-22T08:33:57.033Z,67.00
2019-02-22T08:36:27.424Z,69.20
2019-02-22T08:38:59.754Z,68.90
2019-02-22T08:41:31.326Z,73.63
2019-02-22T08:44:04.113Z,66.50
2019-02-22T08:46:35.874Z,75.97
2019-02-22T08:49:10.814Z,75.37
2019-02-22T08:51:43.394Z,77.10
2019-02-22T08:54:15.403Z,79.03
2019-02-22T08:56:47.864Z,72.03
2019-02-22T08:59:19.344Z,81.93
2019-02-22T09:01:52.616Z,74.30
2019-02-22T09:04:24.388Z,71.93
2019-02-22T09:06:57.302Z,69.23
2019-02-22T09:09:29.514Z,68.57
2019-02-22T09:12:01.430Z,69.80
2019-02-22T09:14:33.499Z,64.93
2019-02-22T09:17:05.735Z,71.13
2019-02-22T09:19:37.364Z,63.53
2019-02-22T09:22:10.123Z,59.70
2019-02-22T09:24:41.842Z,63.67
2019-02-22T09:27:13.594Z,53.20
2019-02-22T09:29:45.608Z,52.10
2019-02-22T09:32:17.707Z,55.10
2019-02-22T09:34:49.879Z,49.60
2019-02-22T09:37:21.227Z,51.63
2019-02-22T09:39:53.536Z,51.07
2019-02-22T09:42:25.269Z,46.00
2019-02-22T09:44:57.381Z,47.23
2019-02-22T09:47:29.720Z,49.23
2019-02-22T09:50:01.683Z,44.60
2019-02-22T09:52:34.216Z,41.23
2019-02-22T09:55:05.894Z,44.17
2019-02-22T09:57:38.653Z,46.70
2019-02-22T10:00:14.153Z,41.80
2019-02-22T10:02:46.177Z,42.70
2019-02-22T10:05:17.619Z,41.40
2019-02-22T10:07:49.193Z,47.43
2019-02-22T10:10:20.667Z,42.77
2019-02-22T10:12:52.316Z,40.43
2019-02-22T10:15:24.193Z,41.83
2019-02-22T10:17:55.676Z,38.30
2019-02-22T10:20:27.660Z,35.80
2019-02-22T10:22:59.657Z,34.73
2019-02-22T10:25:31.517Z,35.83
2019-02-22T10:28:03.365Z,36.70
2019-02-22T10:30:34.787Z,30.90
2019-02-22T10:33:06.989Z,31.97
2019-02-22T10:35:38.737Z,32.40
2019-02-22T10:38:15.080Z,31.90
2019-02-22T10:40:47.019Z,30.07
2019-02-22T10:43:18.388Z,32.33
2019-02-22T10:45:50.904Z,30.93
2019-02-22T10:48:22.507Z,32.83
2019-02-22T10:50:54.318Z,31.77
2019-02-22T10:53:25.866Z,30.97
2019-02-22T10:55:57.892Z,31.73
2019-02-22T10:58:29.062Z,30.17
2019-02-22T11:01:01.076Z,29.90
2019-02-22T11:03:34.169Z,30.57
2019-02-22T11:06:06.123Z,27.67
2019-02-22T11:08:37.197Z,29.77
2019-02-22T11:11:09.254Z,31.47
2019-02-22T11:13:40.687Z,27.30
2019-02-22T11:16:14.082Z,19.47
2019-02-22T11:18:45.706Z,21.23
2019-02-22T11:21:17.690Z,20.97
2019-02-22T11:23:49.155Z,13.93
2019-02-22T11:26:20.720Z,12.67
2019-02-22T11:28:53.088Z,8.17
2019-02-22T11:31:24.650Z,9.57
2019-02-22T11:33:56.987Z,9.07
2019-02-22T11:36:28.646Z,8.50
2019-02-22T11:39:00.831Z,8.40
2019-02-22T11:41:35.370Z,11.27
2019-02-22T11:44:07.096Z,12.77
2019-02-22T11:46:39.752Z,12.97
2019-02-22T11:49:11.824Z,13.07
2019-02-22T11:51:43.574Z,12.27
2019-02-22T11:54:18.435Z,12.67
2019-02-22T11:56:51.357Z,13.87
2019-02-22T11:59:23.210Z,12.60
2019-02-22T12:01:56.363Z,14.23
2019-02-22T12:04:29.986Z,13.13
2019-02-22T12:07:02.765Z,13.03
2019-02-22T12:09:35.423Z,14.80
2019-02-22T12:12:08.512Z,12.27
2019-02-22T12:14:50.866Z,12.30
2019-02-22T12:17:15.498Z,13.43
2019-02-22T12:19:47.483Z,12.53
2019-02-22T12:22:20.163Z,12.03
2019-02-22T12:24:51.613Z,12.53
2019-02-22T12:27:24.290Z,13.40
2019-02-22T12:29:55.932Z,10.77
2019-02-22T12:32:28.369Z,10.23
2019-02-22T12:35:00.468Z,10.53
2019-02-22T12:37:32.115Z,9.97
2019-02-22T12:40:08.351Z,8.70
2019-02-22T12:42:41.151Z,9.87
2019-02-22T12:45:13.338Z,9.93
2019-02-22T12:47:47.018Z,8.53
2019-02-22T12:50:19.537Z,9.57
2019-02-22T12:52:51.140Z,9.60
2019-02-22T12:55:23.848Z,12.03
2019-02-22T12:57:55.539Z,13.67
2019-02-22T13:00:27.057Z,11.93
2019-02-22T13:03:01.937Z,12.13
2019-02-22T13:05:31.967Z,12.40
2019-02-22T13:08:03.437Z,12.87
2019-02-22T13:10:35.003Z,13.23
2019-02-22T13:13:08.405Z,12.03
2019-02-22T13:15:39.078Z,12.13
2019-02-22T13:18:09.736Z,13.30
2019-02-22T13:20:40.402Z,11.50
2019-02-22T13:23:11.160Z,8.87
2019-02-22T13:25:41.683Z,10.43
2019-02-22T13:28:12.384Z,8.57
2019-02-22T13:30:44.164Z,8.57
2019-02-22T13:33:15.720Z,7.57
2019-02-22T13:35:46.325Z,7.30
2019-02-22T13:38:16.947Z,9.97
2019-02-22T13:40:49.296Z,7.47
2019-02-22T13:43:21.662Z,8.27
2019-02-22T13:45:54.327Z,7.47
2019-02-22T13:48:25.125Z,5.87
2019-02-22T13:50:57.158Z,7.43
2019-02-22T13:53:28.009Z,8.30
2019-02-22T13:55:59.778Z,8.37
2019-02-22T13:58:30.554Z,9.27
2019-02-22T14:01:01.728Z,7.27
2019-02-22T14:03:33.093Z,6.97
2019-02-22T14:06:04.017Z,6.43
2019-02-22T14:08:34.741Z,6.60
2019-02-22T14:11:05.621Z,6.00
2019-02-22T14:13:36.575Z,7.07
2019-02-22T14:16:11.177Z,8.17
2019-02-22T14:18:44.482Z,7.43
2019-02-22T14:21:15.313Z,8.03
2019-02-22T14:23:46.509Z,10.30
2019-02-22T14:26:17.235Z,11.00
2019-02-22T14:28:48.066Z,11.10
2019-02-22T14:31:18.645Z,10.87
2019-02-22T14:33:49.745Z,11.77
2019-02-22T14:36:20.678Z,11.83
2019-02-22T14:38:51.666Z,11.43
2019-02-22T14:41:24.373Z,15.50
2019-02-22T14:43:55.095Z,16.03
2019-02-22T14:46:26.798Z,17.27
2019-02-22T14:49:04.773Z,17.77
2019-02-22T14:51:37.275Z,21.27
2019-02-22T14:54:15.938Z,19.87
2019-02-22T14:56:48.149Z,17.77
2019-02-22T14:59:18.789Z,20.67
2019-02-22T15:01:49.546Z,20.37
2019-02-22T15:04:21.283Z,19.37
2019-02-22T15:06:52.573Z,19.90
2019-02-22T15:09:23.195Z,20.30
2019-02-22T15:11:57.506Z,19.10
2019-02-22T15:14:30.693Z,17.80
2019-02-22T15:17:38.328Z,17.03
2019-02-22T15:20:11.444Z,14.13
2019-02-22T15:22:43.633Z,14.90
2019-02-22T15:25:16.546Z,15.37
2019-02-22T15:27:49.556Z,17.67
2019-02-22T15:30:21.935Z,18.37
2019-02-22T15:32:54.551Z,14.90
2019-02-22T15:35:27.499Z,15.17
2019-02-22T15:38:00.884Z,13.10
2019-02-22T15:40:36.171Z,13.67
2019-02-22T15:43:10.102Z,13.77
2019-02-22T15:45:43.777Z,17.67
2019-02-22T15:48:17.922Z,17.13
2019-02-22T15:50:50.945Z,14.07
2019-02-22T15:53:23.531Z,15.57
2019-02-22T15:55:56.153Z,17.13
2019-02-22T15:58:29.647Z,15.40
2019-02-22T16:01:01.759Z,15.47
2019-02-22T16:04:13.005Z,14.53
2019-02-22T16:06:47.140Z,15.87
2019-02-22T16:09:21.973Z,13.73
2019-02-22T16:11:56.543Z,13.83
2019-02-22T16:14:32.134Z,13.63
2019-02-22T16:17:05.295Z,14.57
2019-02-22T16:19:41.297Z,15.70
2019-02-22T16:22:15.628Z,13.80
2019-02-22T16:24:48.589Z,15.10
2019-02-22T16:27:20.863Z,16.53
2019-02-22T16:29:56.203Z,12.33
2019-02-22T16:32:30.877Z,13.73
2019-02-22T16:35:03.569Z,13.63
2019-02-22T16:37:38.241Z,15.93
2019-02-22T16:40:15.622Z,15.10
2019-02-22T16:42:50.164Z,17.50
2019-02-22T16:45:22.771Z,12.53
2019-02-22T16:47:55.031Z,17.20
2019-02-22T16:50:29.770Z,15.83
2019-02-22T16:53:02.319Z,17.73
2019-02-22T16:55:35.726Z,14.50
2019-02-22T16:58:08.381Z,15.27
2019-02-22T17:00:41.448Z,18.03
2019-02-22T17:03:14.636Z,21.83
2019-02-22T17:05:47.166Z,21.10
2019-02-22T17:08:20.733Z,19.57
2019-02-22T17:10:52.533Z,19.87
2019-02-22T17:13:24.940Z,21.13
2019-02-22T17:15:57.978Z,20.17
2019-02-22T17:18:30.253Z,22.17
2019-02-22T17:21:03.781Z,19.63
2019-02-22T17:23:36.535Z,24.47
2019-02-22T17:26:13.389Z,19.33
2019-02-22T17:28:46.084Z,22.40
2019-02-22T17:31:19.349Z,22.60
2019-02-22T17:33:52.315Z,26.00
2019-02-22T17:36:27.149Z,20.87
2019-02-22T17:38:59.985Z,19.87
2019-02-22T17:41:32.600Z,19.60
2019-02-22T17:44:05.114Z,19.30
2019-02-22T17:46:38.740Z,20.33
2019-02-22T17:49:13.556Z,20.73
2019-02-22T17:51:45.949Z,21.63
2019-02-22T17:54:18.420Z,24.17
2019-02-22T17:56:50.643Z,20.23
2019-02-22T17:59:23.335Z,19.33
2019-02-22T18:01:56.010Z,19.73
2019-02-22T18:04:29.128Z,19.40
2019-02-22T18:07:06.709Z,18.43
2019-02-22T18:09:39.215Z,19.10
2019-02-22T18:12:11.740Z,19.33
2019-02-22T18:14:44.713Z,18.17
2019-02-22T18:17:16.892Z,18.43
2019-02-22T18:19:52.143Z,19.17
2019-02-22T18:22:26.123Z,19.33
2019-02-22T18:25:02.297Z,18.70
2019-02-22T18:27:35.346Z,19.77
2019-02-22T18:30:09.897Z,18.07
2019-02-22T18:32:45.624Z,19.73
2019-02-22T18:35:19.329Z,23.77
2019-02-22T18:37:57.107Z,18.00
2019-02-22T18:40:30.771Z,22.97
2019-02-22T18:43:03.609Z,19.67
2019-02-22T18:45:37.843Z,25.70
2019-02-22T18:48:13.515Z,21.03
2019-02-22T18:50:46.649Z,19.97
2019-02-22T18:53:19.494Z,21.37
2019-02-22T18:55:52.234Z,19.57
2019-02-22T18:58:25.550Z,21.13
2019-02-22T19:01:00.422Z,22.37
2019-02-22T19:03:33.154Z,22.37
2019-02-22T19:06:05.619Z,23.30
2019-02-22T19:08:40.205Z,20.10
2019-02-22T19:11:12.917Z,22.00
2019-02-22T19:13:47.138Z,21.27
2019-02-22T19:16:20.608Z,24.80
2019-02-22T19:18:53.812Z,23.30
2019-02-22T19:21:27.859Z,26.43
2019-02-22T19:24:01.831Z,24.10
2019-02-22T19:26:35.688Z,25.93
2019-02-22T19:29:09.236Z,26.53
2019-02-22T19:31:41.838Z,26.83
2019-02-22T19:34:26.691Z,26.63
2019-02-22T19:36:59.305Z,30.03
2019-02-22T19:39:33.153Z,29.83
2019-02-22T19:42:09.436Z,30.27
2019-02-22T19:44:43.096Z,32.50
2019-02-22T19:47:18.704Z,34.40
2019-02-22T19:49:52.533Z,33.23
2019-02-22T19:52:26.310Z,35.93
2019-02-22T19:54:59.363Z,38.30
2019-02-22T19:57:35.154Z,39.10
2019-02-22T20:00:10.808Z,43.43
2019-02-22T20:02:44.860Z,47.03
2019-02-22T20:05:20.767Z,42.10
2019-02-22T20:07:56.355Z,43.90
2019-02-22T20:10:34.540Z,40.77
2019-02-22T20:13:09.759Z,41.20
2019-02-22T20:15:46.044Z,48.30
2019-02-22T20:18:21.068Z,44.97
2019-02-22T20:20:55.772Z,45.97
2019-02-22T20:23:30.942Z,50.73
2019-02-22T20:26:05.553Z,48.13
2019-02-22T20:28:44.171Z,53.87
2019-02-22T20:31:20.489Z,49.87
2019-02-22T20:34:02.194Z,58.43
2019-02-22T20:36:37.076Z,52.73
2019-02-22T20:39:13.244Z,55.50
2019-02-22T20:41:49.148Z,59.33
2019-02-22T20:44:26.071Z,57.53
2019-02-22T20:47:00.504Z,56.03
2019-02-22T20:49:37.225Z,59.17
2019-02-22T20:52:14.477Z,55.40
2019-02-22T20:54:48.318Z,60.47
2019-02-22T20:57:24.779Z,70.40
2019-02-22T21:00:06.330Z,62.00
2019-02-22T21:02:42.589Z,58.30
2019-02-22T21:05:18.435Z,59.40
2019-02-22T21:07:54.763Z,68.63
2019-02-22T21:10:33.380Z,65.43
2019-02-22T21:13:12.368Z,75.37
2019-02-22T21:15:48.246Z,68.70
2019-02-22T21:18:23.659Z,63.90
2019-02-22T21:20:58.672Z,70.83
2019-02-22T21:23:36.167Z,77.87
2019-02-22T21:26:10.798Z,62.97
2019-02-22T21:28:45.119Z,67.63
2019-02-22T21:31:20.284Z,80.07
2019-02-22T21:33:56.001Z,76.00
2019-02-22T21:36:30.334Z,70.37
2019-02-22T21:39:05.719Z,82.50
2019-02-22T21:41:40.972Z,73.67
2019-02-22T21:44:14.856Z,74.97
2019-02-22T21:46:49.222Z,69.20
2019-02-22T21:49:23.825Z,82.93
2019-02-22T21:51:59.969Z,84.53
2019-02-22T21:54:37.765Z,80.17
2019-02-22T21:57:12.448Z,91.10
2019-02-22T21:59:46.810Z,74.50
2019-02-22T22:02:21.810Z,94.30
2019-02-22T22:04:56.259Z,95.60
2019-02-22T22:07:30.816Z,85.17
2019-02-22T22:10:05.504Z,94.40
2019-02-22T22:12:40.279Z,91.43
2019-02-22T22:15:14.711Z,103.47
2019-02-22T22:17:49.401Z,91.00
2019-02-22T22:20:22.923Z,87.23
2019-02-22T22:22:58.316Z,86.50
2019-02-22T22:25:32.449Z,79.63
2019-02-22T22:28:06.596Z,84.93
2019-02-22T22:30:40.527Z,93.57
2019-02-22T22:33:18.879Z,95.13
2019-02-22T22:35:54.796Z,89.50
2019-02-22T22:38:29.061Z,106.37
2019-02-22T22:41:03.396Z,83.20
2019-02-22T22:43:37.927Z,87.73
2019-02-22T22:46:12.930Z,76.10
2019-02-22T22:48:50.454Z,94.83
2019-02-22T22:51:22.951Z,90.43
2019-02-22T22:53:58.869Z,92.13
2019-02-22T22:56:35.222Z,90.07
2019-02-22T22:59:11.260Z,95.30
2019-02-22T23:01:45.935Z,117.23
2019-02-22T23:04:19.836Z,107.30
2019-02-22T23:06:54.562Z,118.57
2019-02-22T23:09:29.311Z,111.13
2019-02-22T23:12:03.772Z,115.57
2019-02-22T23:14:39.236Z,98.50
2019-02-22T23:17:13.349Z,90.73
2019-02-22T23:19:47.983Z,111.03
2019-02-22T23:22:23.971Z,120.67
2019-02-22T23:24:59.451Z,121.87
2019-02-22T23:27:34.147Z,105.10
2019-02-22T23:30:09.104Z,111.70
2019-02-22T23:32:43.630Z,109.17
2019-02-22T23:35:21.278Z,136.60
2019-02-22T23:37:56.347Z,105.00
2019-02-22T23:40:33.125Z,107.40
2019-02-22T23:43:09.403Z,130.53
2019-02-22T23:45:44.689Z,120.07
2019-02-22T23:48:18.279Z,102.23
2019-02-22T23:50:52.831Z,102.93
2019-02-22T23:53:26.847Z,118.10
2019-02-22T23:56:00.993Z,88.57
2019-02-22T23:58:34.620Z,121.63
